createdAt,value
2023-04-18T00:00:46.986Z,9.23
2023-04-18T00:03:17.512Z,13.55
2023-04-18T00:05:49.820Z,12.35
2023-04-18T00:08:23.369Z,10.88
2023-04-18T00:10:53.116Z,12.18
2023-04-18T00:13:25.195Z,11.00
2023-04-18T00:15:58.479Z,10.82
2023-04-18T00:18:28.804Z,12.70
2023-04-18T00:20:58.501Z,10.98
2023-04-18T00:23:29.821Z,11.88
2023-04-18T00:26:02.422Z,10.85
2023-04-18T00:28:34.918Z,11.13
2023-04-18T00:31:04.750Z,11.43
2023-04-18T00:33:34.385Z,12.48
2023-04-18T00:36:04.058Z,9.45
2023-04-18T00:38:33.813Z,10.82
2023-04-18T00:41:03.801Z,14.15
2023-04-18T00:43:38.537Z,7.75
2023-04-18T00:46:15.459Z,9.68
2023-04-18T00:48:45.164Z,12.27
2023-04-18T00:51:17.802Z,9.43
2023-04-18T00:53:47.736Z,13.32
2023-04-18T00:56:20.596Z,9.02
2023-04-18T00:58:53.298Z,8.90
2023-04-18T01:01:25.682Z,10.13
2023-04-18T01:04:00.935Z,10.35
2023-04-18T01:06:37.216Z,8.85
2023-04-18T01:09:09.877Z,13.38
2023-04-18T01:11:39.557Z,12.93
2023-04-18T01:14:10.402Z,15.02
2023-04-18T01:16:40.552Z,8.80
2023-04-18T01:19:13.099Z,11.48
2023-04-18T01:21:45.365Z,10.52
2023-04-18T01:24:22.913Z,10.52
2023-04-18T01:26:52.722Z,7.80
2023-04-18T01:29:24.157Z,10.15
2023-04-18T01:31:56.713Z,7.35
2023-04-18T01:34:26.506Z,8.77
2023-04-18T01:36:59.282Z,7.07
2023-04-18T01:39:28.974Z,8.75
2023-04-18T01:42:02.884Z,6.40
2023-04-18T01:44:32.592Z,9.75
2023-04-18T01:47:02.530Z,4.43
2023-04-18T01:49:34.510Z,6.15
2023-04-18T01:52:04.266Z,5.53
2023-04-18T01:54:33.973Z,8.68
2023-04-18T01:57:06.394Z,7.03
2023-04-18T01:59:36.097Z,5.32
2023-04-18T02:02:05.869Z,7.95
2023-04-18T02:04:35.623Z,4.95
2023-04-18T02:07:06.228Z,7.93
2023-04-18T02:09:35.846Z,8.65
2023-04-18T02:12:05.852Z,6.60
2023-04-18T02:14:39.140Z,5.82
2023-04-18T02:17:09.232Z,9.05
2023-04-18T02:19:38.912Z,5.05
2023-04-18T02:22:08.579Z,8.80
2023-04-18T02:24:40.595Z,6.45
2023-04-18T02:27:10.533Z,4.28
2023-04-18T02:29:40.361Z,5.95
2023-04-18T02:32:10.603Z,4.32
2023-04-18T02:34:40.918Z,6.63
2023-04-18T02:37:10.536Z,5.70
2023-04-18T02:39:45.047Z,5.13
2023-04-18T02:44:47.746Z,4.78
2023-04-18T02:47:17.348Z,7.93
2023-04-18T02:52:30.054Z,4.05
2023-04-18T02:55:05.639Z,6.28
2023-04-18T02:57:41.153Z,4.13
2023-04-18T03:00:11.362Z,6.03
2023-04-18T03:02:41.134Z,2.90
2023-04-18T03:05:13.954Z,5.25
2023-04-18T03:07:45.656Z,3.97
2023-04-18T03:10:18.034Z,4.97
2023-04-18T03:12:49.177Z,4.15
2023-04-18T03:15:18.790Z,3.47
2023-04-18T03:17:48.457Z,2.88
2023-04-18T03:20:18.141Z,6.18
2023-04-18T03:22:47.795Z,4.63
2023-04-18T03:25:20.443Z,6.22
2023-04-18T03:27:50.169Z,4.18
2023-04-18T03:30:20.127Z,3.35
2023-04-18T03:32:50.551Z,4.82
2023-04-18T03:35:23.052Z,4.85
2023-04-18T03:37:52.738Z,3.47
2023-04-18T03:40:22.535Z,5.57
2023-04-18T03:42:54.186Z,4.22
2023-04-18T03:45:23.953Z,2.30
2023-04-18T03:47:56.824Z,5.88
2023-04-18T03:50:27.337Z,2.53
2023-04-18T03:53:00.224Z,5.20
2023-04-18T03:55:29.954Z,2.08
2023-04-18T03:58:03.039Z,3.55
2023-04-18T04:00:35.217Z,4.78
2023-04-18T04:03:13.742Z,3.10
2023-04-18T04:05:43.543Z,3.47
2023-04-18T04:08:16.109Z,3.83
2023-04-18T04:10:45.815Z,3.83
2023-04-18T04:13:17.850Z,2.33
2023-04-18T04:15:50.335Z,2.88
2023-04-18T04:18:22.628Z,3.70
2023-04-18T04:20:52.434Z,2.45
2023-04-18T04:23:22.127Z,2.72
2023-04-18T04:25:51.774Z,1.95
2023-04-18T04:28:26.063Z,3.97
2023-04-18T04:30:57.000Z,2.05
2023-04-18T04:33:30.276Z,4.47
2023-04-18T04:35:59.915Z,2.03
2023-04-18T04:38:32.716Z,4.72
2023-04-18T04:41:05.387Z,2.53
2023-04-18T04:43:38.464Z,2.75
2023-04-18T04:46:11.453Z,3.55
2023-04-18T04:48:41.185Z,2.67
2023-04-18T04:51:13.736Z,3.47
2023-04-18T04:53:43.558Z,4.22
2023-04-18T04:56:14.226Z,2.20
2023-04-18T04:58:44.013Z,2.78
2023-04-18T05:01:14.499Z,2.65
2023-04-18T05:03:47.401Z,3.00
2023-04-18T05:06:22.165Z,3.65
2023-04-18T05:08:55.312Z,2.17
2023-04-18T05:11:28.059Z,2.78
2023-04-18T05:13:57.600Z,2.08
2023-04-18T05:16:27.337Z,3.17
2023-04-18T05:18:57.083Z,2.70
2023-04-18T05:21:30.327Z,2.70
2023-04-18T05:24:05.774Z,5.60
2023-04-18T05:26:45.418Z,2.03
2023-04-18T05:29:15.581Z,4.03
2023-04-18T05:31:56.521Z,5.65
2023-04-18T05:34:29.702Z,3.08
2023-04-18T05:36:59.514Z,3.22
2023-04-18T05:39:32.188Z,8.20
2023-04-18T05:42:09.776Z,4.22
2023-04-18T05:44:42.363Z,5.95
2023-04-18T05:47:16.950Z,6.75
2023-04-18T05:49:49.669Z,2.22
2023-04-18T05:52:28.012Z,3.47
2023-04-18T05:54:58.190Z,1.67
2023-04-18T05:57:27.997Z,3.15
2023-04-18T05:59:59.850Z,4.53
2023-04-18T06:02:32.633Z,4.50
2023-04-18T06:05:03.000Z,4.18
2023-04-18T06:07:35.901Z,2.45
2023-04-18T06:10:07.305Z,2.42
2023-04-18T06:12:41.352Z,2.92
2023-04-18T06:15:14.723Z,7.47
2023-04-18T06:17:48.763Z,3.03
2023-04-18T06:20:18.554Z,3.67
2023-04-18T06:22:51.014Z,3.42
2023-04-18T06:25:20.725Z,3.78
2023-04-18T06:27:50.574Z,4.40
2023-04-18T06:30:23.322Z,5.15
2023-04-18T06:32:53.079Z,3.38
2023-04-18T06:35:24.557Z,4.82
2023-04-18T06:37:55.626Z,4.20
2023-04-18T06:40:25.237Z,4.07
2023-04-18T06:43:00.556Z,4.20
2023-04-18T06:45:34.807Z,5.38
2023-04-18T06:48:10.205Z,6.50
2023-04-18T06:50:39.943Z,4.53
2023-04-18T06:53:12.274Z,5.45
2023-04-18T06:55:50.678Z,4.05
2023-04-18T06:58:23.052Z,4.97
2023-04-18T07:00:56.041Z,4.97
2023-04-18T07:03:25.775Z,5.72
2023-04-18T07:05:58.398Z,2.08
2023-04-18T07:08:28.098Z,4.80
2023-04-18T07:10:57.725Z,3.55
2023-04-18T07:13:32.800Z,2.40
2023-04-18T07:16:03.034Z,4.90
2023-04-18T07:18:38.086Z,4.25
2023-04-18T07:21:08.930Z,4.60
2023-04-18T07:23:48.872Z,2.92
2023-04-18T07:26:18.576Z,2.90
2023-04-18T07:28:48.209Z,7.05
2023-04-18T07:31:18.028Z,4.47
2023-04-18T07:33:50.621Z,7.38
2023-04-18T07:36:20.562Z,3.90
2023-04-18T07:38:50.365Z,5.70
2023-04-18T07:41:19.983Z,4.35
2023-04-18T07:43:49.643Z,5.68
2023-04-18T07:46:19.390Z,3.13
2023-04-18T07:48:49.119Z,2.65
2023-04-18T07:51:18.820Z,4.53
2023-04-18T07:53:48.423Z,3.75
2023-04-18T07:56:18.269Z,3.72
2023-04-18T07:58:50.950Z,3.83
2023-04-18T08:01:25.119Z,3.55
2023-04-18T08:03:58.985Z,4.07
2023-04-18T08:06:31.750Z,3.33
2023-04-18T08:09:04.684Z,7.38
2023-04-18T08:11:40.703Z,5.40
2023-04-18T08:14:13.408Z,3.25
2023-04-18T08:16:45.692Z,2.83
2023-04-18T08:19:18.258Z,4.63
2023-04-18T08:21:47.971Z,2.92
2023-04-18T08:24:17.593Z,4.18
2023-04-18T08:26:47.292Z,3.28
2023-04-18T08:29:16.975Z,3.97
2023-04-18T08:31:46.646Z,3.35
2023-04-18T08:34:19.534Z,3.67
2023-04-18T08:36:49.205Z,6.28
2023-04-18T08:39:19.144Z,3.58
2023-04-18T08:41:56.084Z,4.28
2023-04-18T08:44:25.666Z,3.65
2023-04-18T08:46:58.948Z,5.22
2023-04-18T08:49:40.587Z,3.05
2023-04-18T08:52:15.480Z,5.22
2023-04-18T08:54:45.987Z,4.63
2023-04-18T08:57:31.626Z,3.55
2023-04-18T09:00:04.178Z,2.80
2023-04-18T09:02:43.839Z,3.00
2023-04-18T09:05:21.354Z,3.45
2023-04-18T09:07:53.808Z,4.03
2023-04-18T09:10:36.965Z,3.78
2023-04-18T09:13:07.125Z,2.58
2023-04-18T09:15:36.775Z,2.47
2023-04-18T09:18:12.459Z,3.33
2023-04-18T09:20:43.708Z,3.78
2023-04-18T09:23:27.010Z,3.15
2023-04-18T09:25:56.933Z,4.13
2023-04-18T09:28:33.326Z,4.18
2023-04-18T09:31:16.073Z,4.35
2023-04-18T09:33:58.218Z,3.05
2023-04-18T09:36:29.410Z,2.75
2023-04-18T09:38:59.094Z,2.95
2023-04-18T09:41:29.082Z,3.20
2023-04-18T09:44:17.702Z,3.65
2023-04-18T09:46:47.914Z,3.35
2023-04-18T09:49:18.361Z,3.22
2023-04-18T09:51:48.821Z,2.58
2023-04-18T09:54:25.062Z,2.78
2023-04-18T09:56:58.190Z,2.70
2023-04-18T09:59:35.960Z,2.58
2023-04-18T10:02:08.436Z,3.63
2023-04-18T10:04:38.599Z,4.10
2023-04-18T10:07:17.516Z,3.20
2023-04-18T10:09:48.799Z,2.90
2023-04-18T10:12:20.039Z,3.08
2023-04-18T10:14:50.027Z,3.42
2023-04-18T10:17:23.188Z,3.63
2023-04-18T10:20:18.618Z,2.75
2023-04-18T10:22:52.069Z,2.00
2023-04-18T10:25:43.140Z,3.47
2023-04-18T10:28:13.799Z,2.53
2023-04-18T10:30:43.400Z,1.85
2023-04-18T10:33:42.518Z,3.10
2023-04-18T10:36:13.895Z,4.25
2023-04-18T10:38:54.732Z,2.53
2023-04-18T10:41:27.468Z,3.25
2023-04-18T10:44:09.227Z,3.38
2023-04-18T10:46:46.022Z,2.70
2023-04-18T10:49:25.450Z,3.28
2023-04-18T10:52:01.095Z,2.78
2023-04-18T10:54:55.987Z,2.50
2023-04-18T10:57:29.125Z,2.53
2023-04-18T10:59:59.284Z,2.72
2023-04-18T11:02:31.660Z,2.70
2023-04-18T11:05:09.066Z,2.00
2023-04-18T11:07:42.703Z,2.25
2023-04-18T11:10:12.563Z,4.10
2023-04-18T11:12:43.337Z,3.58
2023-04-18T11:15:24.016Z,2.53
2023-04-18T11:18:11.122Z,3.95
2023-04-18T11:20:45.382Z,2.75
2023-04-18T11:23:24.306Z,2.53
2023-04-18T11:26:00.700Z,4.80
2023-04-18T11:28:34.460Z,2.20
2023-04-18T11:31:10.102Z,4.60
2023-04-18T11:33:39.765Z,2.53
2023-04-18T11:36:09.934Z,3.10
2023-04-18T11:38:43.032Z,2.95
2023-04-18T11:41:18.862Z,2.47
2023-04-18T11:43:49.156Z,2.30
2023-04-18T11:46:18.825Z,2.92
2023-04-18T11:48:49.298Z,2.80
2023-04-18T11:51:39.816Z,2.35
2023-04-18T11:54:58.172Z,2.85
2023-04-18T11:57:36.744Z,3.63
2023-04-18T12:00:11.866Z,3.70
2023-04-18T12:02:46.343Z,2.08
2023-04-18T12:05:30.843Z,3.33
2023-04-18T12:08:21.286Z,2.85
2023-04-18T12:10:55.057Z,2.75
2023-04-18T12:13:29.494Z,4.10
2023-04-18T12:15:59.677Z,3.15
2023-04-18T12:18:31.332Z,2.85
2023-04-18T12:21:06.275Z,3.05
2023-04-18T12:23:37.268Z,3.15
2023-04-18T12:26:25.236Z,2.78
2023-04-18T12:28:58.162Z,3.30
2023-04-18T12:31:30.849Z,2.70
2023-04-18T12:34:04.636Z,4.95
2023-04-18T12:36:34.395Z,5.20
2023-04-18T12:39:07.187Z,3.20
2023-04-18T12:41:36.945Z,3.83
2023-04-18T12:44:09.837Z,3.00
2023-04-18T12:46:39.528Z,2.10
2023-04-18T12:49:09.224Z,3.38
2023-04-18T12:51:39.004Z,2.78
2023-04-18T12:54:08.692Z,2.30
2023-04-18T12:56:38.334Z,3.83
2023-04-18T12:59:07.996Z,3.25
2023-04-18T13:01:37.763Z,3.92
2023-04-18T13:04:12.618Z,3.17
2023-04-18T13:06:43.202Z,3.33
2023-04-18T13:09:12.986Z,2.63
2023-04-18T13:11:42.765Z,4.07
2023-04-18T13:14:12.600Z,2.42
2023-04-18T13:16:43.866Z,2.40
2023-04-18T13:19:13.993Z,2.88
2023-04-18T13:21:43.857Z,3.00
2023-04-18T13:24:16.229Z,3.13
2023-04-18T13:26:45.883Z,2.58
2023-04-18T13:29:18.588Z,3.08
2023-04-18T13:31:48.318Z,3.03
2023-04-18T13:34:23.424Z,2.20
2023-04-18T13:36:53.007Z,3.08
2023-04-18T13:39:23.128Z,2.55
2023-04-18T13:41:53.033Z,4.20
2023-04-18T13:44:22.846Z,2.75
2023-04-18T13:46:52.785Z,3.42
2023-04-18T13:49:22.751Z,3.20
2023-04-18T13:51:54.913Z,3.60
2023-04-18T13:54:24.980Z,4.03
2023-04-18T13:57:02.020Z,3.45
2023-04-18T13:59:33.571Z,3.58
2023-04-18T14:02:03.296Z,2.30
2023-04-18T14:04:34.350Z,4.72
2023-04-18T14:07:07.824Z,2.85
2023-04-18T14:09:37.673Z,3.47
2023-04-18T14:12:07.760Z,3.90
2023-04-18T14:14:37.698Z,3.00
2023-04-18T14:17:08.051Z,3.42
2023-04-18T14:19:37.732Z,2.72
2023-04-18T14:22:08.775Z,3.60
2023-04-18T14:24:38.841Z,5.95
2023-04-18T14:27:09.667Z,3.55
2023-04-18T14:29:39.257Z,3.17
2023-04-18T14:32:09.253Z,3.50
2023-04-18T14:34:42.021Z,3.55
2023-04-18T14:37:15.638Z,3.45
2023-04-18T14:39:49.457Z,4.22
2023-04-18T14:42:19.387Z,3.83
2023-04-18T14:44:51.973Z,3.45
2023-04-18T14:47:22.021Z,3.28
2023-04-18T14:49:55.590Z,3.88
2023-04-18T14:52:25.289Z,3.70
2023-04-18T14:54:54.870Z,3.22
2023-04-18T14:57:33.244Z,3.58
2023-04-18T15:00:05.636Z,4.57
2023-04-18T15:02:38.720Z,3.53
2023-04-18T15:05:09.601Z,3.67
2023-04-18T15:07:39.556Z,3.38
2023-04-18T15:10:12.993Z,4.50
2023-04-18T15:12:44.057Z,4.18
2023-04-18T15:15:13.894Z,2.90
2023-04-18T15:17:43.785Z,3.63
2023-04-18T15:20:15.820Z,3.70
2023-04-18T15:22:48.142Z,3.60
2023-04-18T15:25:18.618Z,4.85
2023-04-18T15:27:48.274Z,4.60
2023-04-18T15:30:18.036Z,2.78
2023-04-18T15:32:47.692Z,3.83
2023-04-18T15:35:19.434Z,3.10
2023-04-18T15:37:49.178Z,3.00
2023-04-18T15:40:19.836Z,4.63
2023-04-18T15:42:51.146Z,3.85
2023-04-18T15:45:20.901Z,3.75
2023-04-18T15:47:50.736Z,4.25
2023-04-18T15:50:23.634Z,4.07
2023-04-18T15:52:58.822Z,3.55
2023-04-18T15:55:28.538Z,3.75
2023-04-18T15:57:58.284Z,5.18
2023-04-18T16:00:28.989Z,3.30
2023-04-18T16:02:58.805Z,4.28
2023-04-18T16:05:28.544Z,2.30
2023-04-18T16:07:59.227Z,3.50
2023-04-18T16:10:28.943Z,2.92
2023-04-18T16:13:01.588Z,3.88
2023-04-18T16:15:33.389Z,4.15
2023-04-18T16:18:03.528Z,2.70
2023-04-18T16:20:34.973Z,5.15
2023-04-18T16:23:07.535Z,2.78
2023-04-18T16:25:42.647Z,4.43
2023-04-18T16:28:12.373Z,3.40
2023-04-18T16:30:45.327Z,4.32
2023-04-18T16:33:15.237Z,3.00
2023-04-18T16:35:44.979Z,3.20
2023-04-18T16:38:16.531Z,3.70
2023-04-18T16:40:48.341Z,4.60
2023-04-18T16:43:18.068Z,4.18
2023-04-18T16:45:52.761Z,4.13
2023-04-18T16:48:28.065Z,2.72
2023-04-18T16:50:58.493Z,4.22
2023-04-18T16:53:31.114Z,3.40
2023-04-18T16:56:04.774Z,4.00
2023-04-18T16:58:34.481Z,2.57
2023-04-18T17:01:04.587Z,3.58
2023-04-18T17:03:34.453Z,3.85
2023-04-18T17:06:04.238Z,3.00
2023-04-18T17:08:38.037Z,3.15
2023-04-18T17:11:07.839Z,3.05
2023-04-18T17:13:40.311Z,2.63
2023-04-18T17:16:15.429Z,2.70
2023-04-18T17:18:45.154Z,3.13
2023-04-18T17:21:14.893Z,4.10
2023-04-18T17:23:50.119Z,2.78
2023-04-18T17:26:20.414Z,3.40
2023-04-18T17:28:50.160Z,3.35
2023-04-18T17:31:19.898Z,3.83
2023-04-18T17:33:52.131Z,2.85
2023-04-18T17:36:30.775Z,3.60
2023-04-18T17:39:07.033Z,3.08
2023-04-18T17:41:42.922Z,2.95
2023-04-18T17:44:12.628Z,3.83
2023-04-18T17:46:42.516Z,2.90
2023-04-18T17:49:13.070Z,4.25
2023-04-18T17:51:47.728Z,3.40
2023-04-18T17:56:54.126Z,5.15
2023-04-18T17:59:25.794Z,4.38
2023-04-18T18:01:55.650Z,4.15
2023-04-18T18:04:26.610Z,2.80
2023-04-18T18:06:57.855Z,3.85
2023-04-18T18:09:27.509Z,3.28
2023-04-18T18:12:00.345Z,3.47
2023-04-18T18:14:29.996Z,4.43
2023-04-18T18:17:04.580Z,2.60
2023-04-18T18:19:34.288Z,4.75
2023-04-18T18:22:03.953Z,3.55
2023-04-18T18:24:33.628Z,2.58
2023-04-18T18:27:03.360Z,3.45
2023-04-18T18:29:33.094Z,2.63
2023-04-18T18:32:05.238Z,3.33
2023-04-18T18:34:34.885Z,5.22
2023-04-18T18:37:11.069Z,5.38
2023-04-18T18:39:43.999Z,4.60
2023-04-18T18:42:13.660Z,3.88
2023-04-18T18:44:43.257Z,4.30
2023-04-18T18:47:12.889Z,3.50
2023-04-18T18:49:42.610Z,2.60
2023-04-18T18:52:15.288Z,2.75
2023-04-18T18:54:44.929Z,2.70
2023-04-18T18:57:14.603Z,4.00
2023-04-18T18:59:44.926Z,5.40
2023-04-18T19:02:14.691Z,4.80
2023-04-18T19:04:47.859Z,4.18
2023-04-18T19:07:17.555Z,4.72
2023-04-18T19:09:50.734Z,2.75
2023-04-18T19:12:20.397Z,3.90
2023-04-18T19:14:56.963Z,3.58
2023-04-18T19:17:27.191Z,4.10
2023-04-18T19:20:00.802Z,3.83
2023-04-18T19:22:35.929Z,3.47
2023-04-18T19:25:08.021Z,2.88
2023-04-18T19:27:37.855Z,4.57
2023-04-18T19:30:08.284Z,3.40
2023-04-18T19:32:38.578Z,5.38
2023-04-18T19:35:08.667Z,3.13
2023-04-18T19:37:38.480Z,3.78
2023-04-18T19:40:10.779Z,5.38
2023-04-18T19:42:40.421Z,3.65
2023-04-18T19:45:10.548Z,3.55
2023-04-18T19:47:40.285Z,5.43
2023-04-18T19:50:10.769Z,6.00
2023-04-18T19:52:40.468Z,4.22
2023-04-18T19:55:10.587Z,3.33
2023-04-18T19:57:41.536Z,3.80
2023-04-18T20:00:13.710Z,3.53
2023-04-18T20:02:44.219Z,4.05
2023-04-18T20:05:16.850Z,4.13
2023-04-18T20:07:46.832Z,3.83
2023-04-18T20:10:16.607Z,3.60
2023-04-18T20:12:47.294Z,3.28
2023-04-18T20:15:17.994Z,4.18
2023-04-18T20:17:47.830Z,5.38
2023-04-18T20:20:21.901Z,3.25
2023-04-18T20:22:51.605Z,2.50
2023-04-18T20:25:21.216Z,3.55
2023-04-18T20:27:50.869Z,3.05
2023-04-18T20:30:20.492Z,3.92
2023-04-18T20:32:50.113Z,4.03
2023-04-18T20:35:21.400Z,2.95
2023-04-18T20:37:51.381Z,4.03
2023-04-18T20:43:08.410Z,4.30
2023-04-18T20:45:39.108Z,3.30
2023-04-18T20:48:09.035Z,3.55
2023-04-18T20:50:38.689Z,3.80
2023-04-18T20:53:08.660Z,2.90
2023-04-18T20:55:38.487Z,3.83
2023-04-18T20:58:08.066Z,3.95
2023-04-18T21:00:37.663Z,3.58
2023-04-18T21:03:09.584Z,2.92
2023-04-18T21:05:39.514Z,4.43
2023-04-18T21:08:09.256Z,3.08
2023-04-18T21:10:38.947Z,8.60
2023-04-18T21:13:14.029Z,4.07
2023-04-18T21:15:44.278Z,12.82
2023-04-18T21:18:16.597Z,10.73
2023-04-18T21:20:46.328Z,14.68
2023-04-18T21:23:18.911Z,11.70
2023-04-18T21:25:48.696Z,19.67
2023-04-18T21:28:20.440Z,16.30
2023-04-18T21:30:53.157Z,15.70
2023-04-18T21:33:22.867Z,17.25
2023-04-18T21:35:52.553Z,18.80
2023-04-18T21:38:26.788Z,15.07
2023-04-18T21:41:05.502Z,15.63
2023-04-18T21:43:40.765Z,16.42
2023-04-18T21:46:19.758Z,12.07
2023-04-18T21:48:53.356Z,16.35
2023-04-18T21:51:22.981Z,13.98
2023-04-18T21:53:55.255Z,13.20
2023-04-18T21:56:24.873Z,12.02
2023-04-18T21:58:54.983Z,7.75
2023-04-18T22:01:24.689Z,7.47
2023-04-18T22:03:54.479Z,10.02
2023-04-18T22:06:27.321Z,9.82
2023-04-18T22:08:57.827Z,7.82
2023-04-18T22:11:27.544Z,6.78
2023-04-18T22:13:59.493Z,6.25
2023-04-18T22:16:31.312Z,6.00
2023-04-18T22:19:02.693Z,8.73
2023-04-18T22:21:35.725Z,11.82
2023-04-18T22:24:05.687Z,6.95
2023-04-18T22:26:35.449Z,6.95
2023-04-18T22:29:05.232Z,7.32
2023-04-18T22:31:38.092Z,8.70
2023-04-18T22:34:07.699Z,9.90
2023-04-18T22:36:37.559Z,10.77
2023-04-18T22:39:10.372Z,5.53
2023-04-18T22:41:43.291Z,10.05
2023-04-18T22:44:13.115Z,6.22
2023-04-18T22:46:42.976Z,9.07
2023-04-18T22:49:14.595Z,5.82
2023-04-18T22:51:45.519Z,5.50
2023-04-18T22:54:18.020Z,4.88
2023-04-18T22:56:47.686Z,8.15
2023-04-18T22:59:19.904Z,4.70
2023-04-18T23:01:52.339Z,4.47
2023-04-18T23:04:22.043Z,6.93
2023-04-18T23:06:51.894Z,6.50
2023-04-18T23:09:21.492Z,4.82
2023-04-18T23:11:54.139Z,6.32
2023-04-18T23:14:25.979Z,4.65
2023-04-18T23:16:55.722Z,4.65
2023-04-18T23:19:30.891Z,9.18
2023-04-18T23:22:00.716Z,9.73
2023-04-18T23:24:30.499Z,6.88
2023-04-18T23:27:00.136Z,8.60
2023-04-18T23:29:29.714Z,16.33
2023-04-18T23:31:59.313Z,8.98
2023-04-18T23:34:29.000Z,10.63
2023-04-18T23:36:58.667Z,12.52
2023-04-18T23:39:34.387Z,8.93
2023-04-18T23:42:04.124Z,13.38
2023-04-18T23:44:33.973Z,11.80
2023-04-18T23:47:06.154Z,13.93
2023-04-18T23:49:35.909Z,16.33
2023-04-18T23:52:08.852Z,18.58
2023-04-18T23:54:41.467Z,9.98
2023-04-18T23:57:11.134Z,9.80
2023-04-18T23:59:40.751Z,12.57
